Time;durP1;ratioP1;P1;durP2;ratioP2;P2;SDS_P1;SDS_P2;PMS_P1;PMS_P2;Temp;Humidity;BMP_temperature;BMP_pressure;BME280_temperature;BME280_humidity;BME280_pressure;Samples;Min_cycle;Max_cycle;Signal;HPM_P1;HPM_P2
2022/12/11 00:01:23;;;;;;;19.30;12.40;;;1.80;99.90;;;;;;4975073;28;20173;-77
2022/12/11 00:03:53;;;;;;;19.40;12.40;;;1.80;99.90;;;;;;4977219;28;20172;-78
2022/12/11 00:06:22;;;;;;;18.93;11.50;;;1.90;99.90;;;;;;4976065;28;20184;-72
2022/12/11 00:08:51;;;;;;;18.17;11.67;;;1.90;99.90;;;;;;4965122;28;20192;-77
2022/12/11 00:11:16;;;;;;;19.20;11.60;;;1.90;99.90;;;;;;4977037;28;20258;-75
2022/12/11 00:13:42;;;;;;;18.57;11.93;;;1.90;99.90;;;;;;4974070;28;20188;-75
2022/12/11 00:16:09;;;;;;;17.67;11.47;;;1.90;99.90;;;;;;4973614;28;20196;-76
2022/12/11 00:18:35;;;;;;;20.50;11.83;;;1.90;99.90;;;;;;4977310;28;20258;-77
2022/12/11 00:21:06;;;;;;;20.63;12.57;;;2.00;99.90;;;;;;4977124;28;20210;-78
2022/12/11 00:23:34;;;;;;;17.57;11.57;;;2.00;99.90;;;;;;4965424;28;20172;-75
2022/12/11 00:26:00;;;;;;;20.10;12.67;;;2.00;99.90;;;;;;4977403;28;20188;-79
2022/12/11 00:28:28;;;;;;;19.07;11.80;;;2.00;99.90;;;;;;4976769;28;20283;-77
2022/12/11 00:30:56;;;;;;;17.50;10.63;;;2.10;99.90;;;;;;4976956;28;20215;-77
2022/12/11 00:33:21;;;;;;;19.60;12.30;;;2.10;99.90;;;;;;4976426;28;20266;-78
2022/12/11 00:35:52;;;;;;;18.57;11.50;;;2.10;99.90;;;;;;4976853;28;20223;-77
2022/12/11 00:38:20;;;;;;;20.60;12.13;;;2.10;99.90;;;;;;4976619;28;20228;-77
2022/12/11 00:40:46;;;;;;;20.97;12.50;;;2.10;99.90;;;;;;4976865;28;20210;-77
2022/12/11 00:43:11;;;;;;;22.00;12.53;;;2.40;99.90;;;;;;4976928;28;20188;-76
2022/12/11 00:45:44;;;;;;;21.37;12.73;;;2.20;99.90;;;;;;4976800;28;20238;-77
2022/12/11 00:48:11;;;;;;;20.33;12.10;;;2.20;99.90;;;;;;4976480;28;20192;-76
2022/12/11 00:50:40;;;;;;;17.80;11.67;;;2.20;99.90;;;;;;4977635;28;20192;-78
2022/12/11 00:53:08;;;;;;;20.83;11.97;;;2.40;99.90;;;;;;4972316;28;20183;-78
2022/12/11 00:55:39;;;;;;;19.50;11.77;;;2.20;99.90;;;;;;4973800;28;20192;-77
2022/12/11 00:58:05;;;;;;;19.23;11.67;;;2.20;99.90;;;;;;4973399;28;20173;-77
2022/12/11 01:00:34;;;;;;;19.10;11.83;;;2.30;99.90;;;;;;4976665;28;20230;-76
2022/12/11 01:03:00;;;;;;;24.30;12.83;;;2.40;99.90;;;;;;4976600;28;20231;-76
2022/12/11 01:05:27;;;;;;;25.03;13.90;;;2.30;99.90;;;;;;4963432;28;20220;-77
2022/12/11 01:07:53;;;;;;;21.33;12.27;;;2.20;99.90;;;;;;4972141;28;20184;-77
2022/12/11 01:10:24;;;;;;;20.43;12.63;;;2.20;99.90;;;;;;4972139;28;20211;-77
2022/12/11 01:12:51;;;;;;;22.17;11.60;;;2.20;99.90;;;;;;4976118;28;20202;-77
2022/12/11 01:15:18;;;;;;;21.33;11.63;;;2.20;99.90;;;;;;4976603;28;20203;-77
2022/12/11 01:17:44;;;;;;;21.53;12.37;;;2.20;99.90;;;;;;4970048;28;20173;-78
2022/12/11 01:20:10;;;;;;;20.37;11.23;;;2.20;99.90;;;;;;4971406;28;20183;-75
2022/12/11 01:22:40;;;;;;;22.27;12.00;;;2.20;99.90;;;;;;4976359;28;20196;-77
2022/12/11 01:25:09;;;;;;;19.10;10.77;;;2.20;99.90;;;;;;4975782;28;20192;-77
2022/12/11 01:27:38;;;;;;;19.87;11.20;;;2.20;99.90;;;;;;4974564;28;20173;-76
2022/12/11 01:30:11;;;;;;;20.20;11.60;;;2.20;99.90;;;;;;4974888;28;20199;-77
2022/12/11 01:32:37;;;;;;;19.77;11.33;;;2.30;99.90;;;;;;4966696;28;20181;-79
2022/12/11 01:35:06;;;;;;;19.30;10.30;;;2.30;99.90;;;;;;4974190;28;20200;-77
2022/12/11 01:37:33;;;;;;;16.70;9.97;;;2.30;99.90;;;;;;4974830;28;20283;-77
2022/12/11 01:39:59;;;;;;;21.47;11.47;;;2.30;99.90;;;;;;4976832;28;20239;-76
2022/12/11 01:42:27;;;;;;;21.67;11.07;;;2.30;99.90;;;;;;4968733;28;20197;-77
2022/12/11 01:45:21;;;;;;;21.07;10.07;;;2.30;99.90;;;;;;4973463;28;20215;-77
2022/12/11 01:47:48;;;;;;;20.13;11.20;;;2.40;99.90;;;;;;4964536;28;20188;-77
2022/12/11 01:50:14;;;;;;;17.97;9.80;;;2.40;99.90;;;;;;4973701;28;20177;-76
2022/12/11 01:52:43;;;;;;;20.03;10.20;;;2.40;99.90;;;;;;4975427;28;20175;-76
2022/12/11 01:55:11;;;;;;;17.37;9.37;;;2.40;99.90;;;;;;4975102;28;20271;-76
2022/12/11 01:57:41;;;;;;;19.03;9.97;;;2.40;99.90;;;;;;4975514;28;20207;-76
2022/12/11 02:00:07;;;;;;;19.70;10.63;;;2.40;99.90;;;;;;4974372;28;20232;-77
2022/12/11 02:02:33;;;;;;;18.83;10.17;;;2.40;99.90;;;;;;4975364;28;20207;-73
2022/12/11 02:05:03;;;;;;;19.67;11.13;;;2.50;99.90;;;;;;4975114;28;20183;-76
2022/12/11 02:07:44;;;;;;;22.57;11.20;;;2.40;99.90;;;;;;4975391;28;20180;-78
2022/12/11 02:10:12;;;;;;;20.00;10.97;;;2.40;99.90;;;;;;4971986;28;20184;-78
2022/12/11 02:12:49;;;;;;;20.63;11.10;;;2.40;99.90;;;;;;4966181;28;20196;-77
2022/12/11 02:15:25;;;;;;;19.20;10.37;;;2.40;99.90;;;;;;4979967;28;20199;-76
2022/12/11 02:18:04;;;;;;;21.77;10.47;;;2.40;99.90;;;;;;4967086;28;20194;-75
2022/12/11 02:20:43;;;;;;;19.70;10.13;;;2.40;99.90;;;;;;4968381;28;20180;-76
2022/12/11 02:23:24;;;;;;;17.43;10.00;;;2.50;99.90;;;;;;4974316;28;20172;-77
2022/12/11 02:26:25;;;;;;;19.80;10.23;;;2.40;99.90;;;;;;4977391;28;20184;-77
2022/12/11 02:28:57;;;;;;;19.73;10.27;;;2.50;99.90;;;;;;4907331;29;20213;-74
2022/12/11 02:31:31;;;;;;;20.50;10.30;;;2.40;99.90;;;;;;4956126;28;20205;-77
2022/12/11 02:34:09;;;;;;;17.13;9.77;;;2.40;99.90;;;;;;4974888;28;20207;-76
2022/12/11 02:36:38;;;;;;;18.80;9.90;;;2.40;99.90;;;;;;4974744;28;20191;-75
2022/12/11 02:39:07;;;;;;;20.47;11.07;;;2.40;99.90;;;;;;4972960;28;20184;-77
2022/12/11 02:41:34;;;;;;;20.80;10.67;;;2.40;99.90;;;;;;4974763;28;20171;-75
2022/12/11 02:44:02;;;;;;;18.97;9.97;;;2.40;99.90;;;;;;4962548;28;20218;-77
2022/12/11 02:46:29;;;;;;;19.43;10.17;;;2.40;99.90;;;;;;4974322;28;20216;-76
2022/12/11 02:48:56;;;;;;;19.30;9.53;;;2.40;99.90;;;;;;4968181;28;20184;-77
2022/12/11 02:51:35;;;;;;;19.93;9.93;;;2.30;99.90;;;;;;4972250;28;20246;-77
2022/12/11 02:54:05;;;;;;;16.30;9.43;;;2.30;99.90;;;;;;4961109;28;20231;-77
2022/12/11 02:57:03;;;;;;;17.37;9.17;;;2.30;99.90;;;;;;4974311;28;20258;-76
2022/12/11 02:59:36;;;;;;;15.80;8.67;;;2.40;99.90;;;;;;4962274;28;20207;-75
2022/12/11 03:02:03;;;;;;;16.13;8.40;;;2.30;99.90;;;;;;4978453;28;20184;-78
2022/12/11 03:04:29;;;;;;;16.33;8.50;;;2.40;99.90;;;;;;4978710;28;20184;-76
2022/12/11 03:07:01;;;;;;;17.10;9.07;;;2.40;99.90;;;;;;4981600;28;20219;-77
2022/12/11 03:09:29;;;;;;;17.13;9.00;;;2.40;99.90;;;;;;4973067;28;20188;-77
2022/12/11 03:11:57;;;;;;;18.33;9.47;;;2.40;99.90;;;;;;4972904;28;20210;-78
2022/12/11 03:14:23;;;;;;;16.87;9.00;;;2.30;99.90;;;;;;4978160;28;20184;-76
2022/12/11 03:17:02;;;;;;;18.47;10.03;;;2.30;99.90;;;;;;4966584;28;20236;-77
2022/12/11 03:19:34;;;;;;;18.37;9.93;;;2.30;99.90;;;;;;4977807;28;20192;-75
2022/12/11 03:22:09;;;;;;;16.43;8.67;;;2.30;99.90;;;;;;4978245;28;20176;-75
2022/12/11 03:24:49;;;;;;;16.97;8.87;;;2.30;99.90;;;;;;4983344;28;20176;-75
2022/12/11 03:27:23;;;;;;;15.83;8.47;;;2.30;99.90;;;;;;4978221;28;20172;-74
2022/12/11 03:30:01;;;;;;;15.43;8.50;;;2.30;99.90;;;;;;4969924;28;20207;-75
2022/12/11 03:32:35;;;;;;;15.97;8.63;;;2.30;99.90;;;;;;4989094;28;20211;-74
2022/12/11 03:35:18;;;;;;;14.00;7.67;;;2.30;99.90;;;;;;4976306;28;20204;-74
2022/12/11 03:37:49;;;;;;;14.17;7.97;;;2.40;99.90;;;;;;4977719;28;20180;-75
2022/12/11 03:40:20;;;;;;;14.23;8.00;;;2.40;99.90;;;;;;4975552;28;20180;-76
2022/12/11 03:42:49;;;;;;;16.33;9.03;;;2.30;99.90;;;;;;4977034;28;20238;-75
2022/12/11 03:45:16;;;;;;;15.33;8.23;;;2.30;99.90;;;;;;4977279;28;20249;-75
2022/12/11 03:47:46;;;;;;;13.83;8.17;;;2.40;99.90;;;;;;4976801;28;20211;-76
2022/12/11 03:50:15;;;;;;;14.47;8.07;;;2.40;99.90;;;;;;4977058;28;20204;-76
2022/12/11 03:52:43;;;;;;;11.57;7.23;;;2.30;99.90;;;;;;4977604;28;20202;-75
2022/12/11 03:55:13;;;;;;;14.07;7.77;;;2.40;99.90;;;;;;4976216;28;20219;-75
2022/12/11 03:57:41;;;;;;;14.77;8.70;;;2.40;99.90;;;;;;4972267;28;20180;-75
2022/12/11 04:00:14;;;;;;;14.40;8.20;;;2.40;99.90;;;;;;4976138;28;20204;-75
2022/12/11 04:02:40;;;;;;;13.47;7.53;;;2.40;99.90;;;;;;4976718;28;20554;-73
2022/12/11 04:05:07;;;;;;;13.93;7.53;;;2.40;99.90;;;;;;4977081;28;20219;-75
2022/12/11 04:07:35;;;;;;;15.63;7.80;;;2.40;99.90;;;;;;4975495;28;20212;-75
2022/12/11 04:10:02;;;;;;;12.27;7.27;;;2.40;99.90;;;;;;4973715;28;20184;-75
2022/12/11 04:12:28;;;;;;;12.73;7.50;;;2.50;99.90;;;;;;4973942;28;20223;-77
2022/12/11 04:15:02;;;;;;;14.77;7.93;;;2.50;99.90;;;;;;4976444;28;20208;-75
2022/12/11 04:26:11;;;;;;;14.37;7.47;;;2.50;99.90;;;;;;4977662;28;20195;-76
2022/12/11 04:28:40;;;;;;;14.40;8.00;;;2.50;99.90;;;;;;4976880;28;20184;-75
2022/12/11 04:31:12;;;;;;;12.33;7.20;;;2.50;99.90;;;;;;4977063;28;20278;-74
2022/12/11 04:33:41;;;;;;;12.40;7.73;;;2.50;99.90;;;;;;4972791;28;20215;-76
2022/12/11 04:36:10;;;;;;;13.97;8.07;;;2.50;99.90;;;;;;4970705;28;20216;-75
2022/12/11 04:38:38;;;;;;;14.13;7.77;;;2.50;99.90;;;;;;4974988;28;20180;-75
2022/12/11 04:41:07;;;;;;;15.47;8.10;;;2.50;99.90;;;;;;4976867;28;20219;-76
2022/12/11 04:43:35;;;;;;;17.17;8.20;;;2.50;99.90;;;;;;4976424;28;20194;-75
2022/12/11 04:46:03;;;;;;;14.87;8.30;;;2.50;99.90;;;;;;4973121;28;20208;-75
2022/12/11 04:48:28;;;;;;;14.17;7.90;;;2.50;99.90;;;;;;4982536;28;20314;-75
2022/12/11 04:50:54;;;;;;;15.50;8.20;;;2.50;99.90;;;;;;4972112;28;20205;-76
2022/12/11 04:53:22;;;;;;;14.40;8.07;;;2.50;99.90;;;;;;4972605;28;20188;-76
2022/12/11 04:55:48;;;;;;;15.30;8.83;;;2.50;99.90;;;;;;4976347;28;20215;-74
2022/12/11 04:58:16;;;;;;;13.93;8.07;;;2.50;99.90;;;;;;4966427;28;20212;-76
2022/12/11 05:00:41;;;;;;;16.50;8.83;;;2.50;99.90;;;;;;4970391;28;20191;-76
2022/12/11 05:03:07;;;;;;;15.60;8.53;;;2.40;99.90;;;;;;4976526;28;20204;-75
2022/12/11 05:05:33;;;;;;;17.50;8.93;;;2.40;99.90;;;;;;4976110;28;20184;-76
2022/12/11 05:07:59;;;;;;;16.80;8.93;;;2.40;99.90;;;;;;4963550;28;20457;-75
2022/12/11 05:10:26;;;;;;;16.27;9.00;;;2.40;99.90;;;;;;4969739;28;20184;-75
2022/12/11 05:12:57;;;;;;;17.07;8.47;;;2.40;99.90;;;;;;4965816;28;20215;-75
2022/12/11 05:15:24;;;;;;;15.07;8.27;;;2.50;99.90;;;;;;4975877;28;20200;-74
2022/12/11 05:17:50;;;;;;;15.17;8.30;;;2.40;99.90;;;;;;4975672;28;20330;-75
2022/12/11 05:20:20;;;;;;;13.40;7.50;;;2.40;99.90;;;;;;4976022;28;20184;-74
2022/12/11 05:22:46;;;;;;;14.10;7.90;;;2.40;99.90;;;;;;4972080;28;20176;-75
2022/12/11 05:25:14;;;;;;;15.33;7.80;;;2.40;99.90;;;;;;4975335;28;20226;-75
2022/12/11 05:27:39;;;;;;;13.87;7.87;;;2.40;99.90;;;;;;4976202;28;20208;-76
2022/12/11 05:30:05;;;;;;;12.90;7.83;;;2.50;99.90;;;;;;4975497;28;20278;-76
2022/12/11 05:32:33;;;;;;;15.43;8.50;;;2.50;99.90;;;;;;4975446;28;20198;-74
2022/12/11 05:34:59;;;;;;;16.20;8.57;;;2.50;99.90;;;;;;4972514;28;20200;-76
2022/12/11 05:37:24;;;;;;;16.27;8.53;;;2.50;99.90;;;;;;4982753;28;20206;-76
2022/12/11 05:39:50;;;;;;;13.97;8.30;;;2.50;99.90;;;;;;4975848;28;20179;-75
2022/12/11 05:42:15;;;;;;;14.70;8.43;;;2.60;99.90;;;;;;4975108;28;20203;-76
2022/12/11 05:44:44;;;;;;;14.33;8.50;;;2.60;99.90;;;;;;4976070;28;20180;-76
2022/12/11 05:47:09;;;;;;;15.90;8.57;;;2.60;99.90;;;;;;4975373;28;20212;-75
2022/12/11 05:49:35;;;;;;;15.37;8.50;;;2.60;99.90;;;;;;4970862;28;20234;-75
2022/12/11 05:52:03;;;;;;;16.33;8.77;;;2.60;99.90;;;;;;4975520;28;20279;-77
2022/12/11 05:54:29;;;;;;;17.33;8.83;;;2.50;99.90;;;;;;4975153;28;20259;-75
2022/12/11 05:56:57;;;;;;;16.03;8.37;;;2.50;99.90;;;;;;4969458;28;20223;-75
2022/12/11 05:59:25;;;;;;;15.03;8.80;;;2.50;99.90;;;;;;4970523;28;20257;-76
2022/12/11 06:02:01;;;;;;;16.17;9.00;;;2.50;99.90;;;;;;4989042;28;20203;-75
2022/12/11 06:04:26;;;;;;;18.03;8.93;;;2.50;99.90;;;;;;4969312;28;20222;-78
2022/12/11 06:06:55;;;;;;;18.47;9.27;;;2.50;99.90;;;;;;4975041;28;20231;-76
2022/12/11 06:09:20;;;;;;;19.00;9.73;;;2.50;99.90;;;;;;4972668;28;20175;-78
2022/12/11 06:11:46;;;;;;;18.47;9.47;;;2.50;99.90;;;;;;4975355;28;20210;-78
2022/12/11 06:14:12;;;;;;;21.23;10.07;;;2.50;99.90;;;;;;4975314;28;20164;-78
2022/12/11 06:16:40;;;;;;;20.63;10.40;;;2.50;99.90;;;;;;4974341;28;20291;-77
2022/12/11 06:19:11;;;;;;;21.63;10.63;;;2.60;99.90;;;;;;4972339;28;20260;-77
2022/12/11 06:21:37;;;;;;;24.10;11.67;;;2.50;99.90;;;;;;4966729;28;20180;-76
2022/12/11 06:24:04;;;;;;;27.43;12.57;;;2.50;99.90;;;;;;4974786;28;20436;-78
2022/12/11 06:26:30;;;;;;;26.23;13.53;;;2.50;99.90;;;;;;4975338;28;20214;-80
2022/12/11 06:28:59;;;;;;;24.37;12.17;;;2.50;99.90;;;;;;4979246;28;20246;-77
2022/12/11 06:31:24;;;;;;;24.77;12.20;;;2.50;99.90;;;;;;4970705;28;20190;-78
2022/12/11 06:33:53;;;;;;;26.23;12.60;;;2.50;99.90;;;;;;4974194;28;20184;-79
2022/12/11 06:36:21;;;;;;;27.33;13.53;;;2.50;99.90;;;;;;4971289;28;20216;-77
2022/12/11 06:38:51;;;;;;;29.13;14.07;;;2.40;99.90;;;;;;4974180;28;20227;-77
2022/12/11 06:41:17;;;;;;;22.50;11.80;;;2.40;99.90;;;;;;4973762;28;20265;-78
2022/12/11 06:43:44;;;;;;;26.83;13.17;;;2.50;99.90;;;;;;4974704;28;20267;-78
2022/12/11 06:46:18;;;;;;;25.40;13.07;;;2.50;99.90;;;;;;4974895;28;20195;-78
2022/12/11 06:48:44;;;;;;;27.20;12.40;;;2.50;99.90;;;;;;4975205;28;20206;-78
2022/12/11 06:51:21;;;;;;;26.70;12.63;;;2.50;99.90;;;;;;4975266;28;20268;-80
2022/12/11 06:53:52;;;;;;;27.40;13.10;;;2.50;99.90;;;;;;4971665;28;20226;-77
2022/12/11 06:56:20;;;;;;;29.97;13.30;;;2.60;99.90;;;;;;4973041;28;21076;-77
2022/12/11 06:58:52;;;;;;;27.27;13.63;;;2.60;99.90;;;;;;4974722;28;20180;-78
2022/12/11 07:01:26;;;;;;;24.77;12.30;;;2.60;99.90;;;;;;4965162;28;20267;-77
2022/12/11 07:03:56;;;;;;;28.20;13.23;;;2.50;99.90;;;;;;4974986;28;20172;-78
2022/12/11 07:06:25;;;;;;;24.83;13.00;;;2.50;99.90;;;;;;4974030;28;20211;-80
2022/12/11 07:08:53;;;;;;;27.53;14.30;;;2.60;99.90;;;;;;4968779;28;20195;-77
2022/12/11 07:11:19;;;;;;;26.30;13.03;;;2.50;99.90;;;;;;4973127;28;20191;-79
2022/12/11 07:13:47;;;;;;;27.57;13.60;;;2.50;99.90;;;;;;4975172;28;20223;-77
2022/12/11 07:16:15;;;;;;;27.17;12.97;;;2.60;99.90;;;;;;4974633;28;20192;-78
2022/12/11 07:18:45;;;;;;;25.47;12.07;;;2.60;99.90;;;;;;4974663;28;20186;-79
2022/12/11 07:21:12;;;;;;;26.43;13.67;;;2.60;99.90;;;;;;4974702;28;20176;-81
2022/12/11 07:23:41;;;;;;;26.87;13.80;;;2.60;99.90;;;;;;4975159;28;20187;-80
2022/12/11 07:26:11;;;;;;;28.07;13.83;;;2.70;99.90;;;;;;4972565;28;20199;-80
2022/12/11 07:28:39;;;;;;;31.77;15.13;;;2.70;99.90;;;;;;4965545;28;20184;-80
2022/12/11 07:31:13;;;;;;;24.77;13.67;;;2.70;99.90;;;;;;4969902;28;20195;-79
2022/12/11 07:33:39;;;;;;;28.20;14.43;;;2.70;99.90;;;;;;4974120;28;20275;-80
2022/12/11 07:36:12;;;;;;;25.13;13.30;;;2.80;99.90;;;;;;4970985;28;20204;-81
2022/12/11 07:38:45;;;;;;;28.90;13.80;;;2.80;99.90;;;;;;4967603;28;20201;-78
2022/12/11 07:41:12;;;;;;;28.07;14.00;;;2.90;99.90;;;;;;4985637;28;20195;-76
2022/12/11 07:43:38;;;;;;;25.73;13.70;;;2.80;99.90;;;;;;4985823;28;20173;-76
2022/12/11 07:46:07;;;;;;;24.13;13.07;;;2.80;99.90;;;;;;4977572;28;20208;-76
2022/12/11 07:48:39;;;;;;;26.63;13.60;;;2.80;99.90;;;;;;4977511;28;20203;-74
2022/12/11 07:51:17;;;;;;;22.87;13.00;;;2.90;99.90;;;;;;4974916;28;20192;-74
2022/12/11 07:53:48;;;;;;;25.67;12.90;;;2.90;99.90;;;;;;4975048;28;20179;-75
2022/12/11 07:56:17;;;;;;;21.77;12.37;;;2.90;99.90;;;;;;4976761;28;20393;-75
2022/12/11 07:58:46;;;;;;;26.27;13.43;;;2.80;99.90;;;;;;4971130;28;20247;-74
2022/12/11 08:01:14;;;;;;;24.20;12.77;;;2.80;99.90;;;;;;4977418;28;20194;-74
2022/12/11 08:03:42;;;;;;;26.07;12.83;;;2.80;99.90;;;;;;4974050;28;20184;-75
2022/12/11 08:06:09;;;;;;;27.77;14.53;;;2.80;99.90;;;;;;4976567;28;20200;-74
2022/12/11 08:08:37;;;;;;;23.00;12.90;;;2.80;99.90;;;;;;4977527;28;20191;-76
2022/12/11 08:11:04;;;;;;;25.33;13.47;;;2.80;99.90;;;;;;4977285;28;20244;-75
2022/12/11 08:13:33;;;;;;;25.97;13.37;;;2.80;99.90;;;;;;4975309;28;20204;-74
2022/12/11 08:16:01;;;;;;;25.17;13.23;;;2.80;99.90;;;;;;4977092;28;20290;-74
2022/12/11 08:18:27;;;;;;;26.43;13.77;;;2.80;99.90;;;;;;4976930;28;20191;-74
2022/12/11 08:20:55;;;;;;;26.47;14.23;;;2.90;99.90;;;;;;4977258;28;20180;-74
2022/12/11 08:23:23;;;;;;;26.57;15.20;;;2.80;99.90;;;;;;4976898;28;20195;-75
2022/12/11 08:25:51;;;;;;;23.37;13.73;;;2.80;99.90;;;;;;4973710;28;20192;-74
2022/12/11 08:28:16;;;;;;;25.33;13.17;;;2.80;99.90;;;;;;4977313;28;20180;-74
2022/12/11 08:30:42;;;;;;;27.63;13.50;;;2.80;99.90;;;;;;4976619;28;20190;-75
2022/12/11 08:33:10;;;;;;;28.23;14.47;;;2.80;99.90;;;;;;4976797;28;20198;-75
2022/12/11 08:35:38;;;;;;;29.43;16.80;;;2.80;99.90;;;;;;4975668;28;20227;-74
2022/12/11 08:38:04;;;;;;;26.73;15.13;;;2.80;99.90;;;;;;4976407;28;20180;-75
2022/12/11 08:40:32;;;;;;;29.90;15.93;;;2.80;99.90;;;;;;4976610;28;20199;-74
2022/12/11 08:42:57;;;;;;;29.30;16.03;;;2.80;99.90;;;;;;4975445;28;20212;-75
2022/12/11 08:45:23;;;;;;;27.20;14.93;;;2.90;99.90;;;;;;4976199;28;20287;-75
2022/12/11 08:47:48;;;;;;;23.47;13.80;;;2.90;99.90;;;;;;4976637;28;20200;-75
2022/12/11 08:50:14;;;;;;;25.93;14.67;;;2.90;99.90;;;;;;4968479;28;20211;-74
2022/12/11 08:52:40;;;;;;;30.03;15.13;;;2.90;99.90;;;;;;4975892;28;20184;-75
2022/12/11 08:55:08;;;;;;;27.97;15.40;;;2.90;99.90;;;;;;4971126;28;20204;-74
2022/12/11 08:57:34;;;;;;;24.77;13.63;;;2.90;99.90;;;;;;4963997;28;20287;-75
2022/12/11 08:59:59;;;;;;;31.17;15.40;;;2.90;99.90;;;;;;4976089;28;20274;-76
2022/12/11 09:02:28;;;;;;;27.70;14.33;;;3.00;99.90;;;;;;4976294;28;20405;-75
2022/12/11 09:04:55;;;;;;;24.27;13.67;;;3.00;99.90;;;;;;4972996;28;20204;-74
2022/12/11 09:07:24;;;;;;;24.37;13.23;;;3.00;99.90;;;;;;4964389;28;20277;-75
2022/12/11 09:09:54;;;;;;;26.37;13.80;;;3.00;99.90;;;;;;4975691;28;20187;-74
2022/12/11 09:12:22;;;;;;;25.57;14.60;;;3.00;99.90;;;;;;4972190;28;20220;-74
2022/12/11 09:14:47;;;;;;;29.77;15.43;;;3.00;99.90;;;;;;4970505;28;20215;-75
2022/12/11 09:17:13;;;;;;;30.50;16.73;;;3.00;99.90;;;;;;4975679;28;20204;-74
2022/12/11 09:19:41;;;;;;;27.10;15.43;;;3.00;99.90;;;;;;4975980;28;20179;-75
2022/12/11 09:22:10;;;;;;;29.33;15.80;;;3.00;99.90;;;;;;4975442;28;20299;-75
2022/12/11 09:24:36;;;;;;;25.00;14.90;;;3.00;99.90;;;;;;4975993;28;20195;-75
2022/12/11 09:27:02;;;;;;;23.30;13.10;;;3.00;99.90;;;;;;4975740;28;20183;-74
2022/12/11 09:29:31;;;;;;;25.30;14.30;;;3.10;99.90;;;;;;4975865;28;20183;-75
2022/12/11 09:31:57;;;;;;;25.27;15.03;;;3.10;99.90;;;;;;4973558;28;20235;-75
2022/12/11 09:34:25;;;;;;;24.10;14.07;;;3.10;99.90;;;;;;4974208;28;20208;-75
2022/12/11 09:36:53;;;;;;;27.57;15.30;;;3.10;99.90;;;;;;4966754;28;20267;-76
2022/12/11 09:39:19;;;;;;;24.60;13.60;;;3.10;99.90;;;;;;4973939;28;20184;-75
2022/12/11 09:41:54;;;;;;;23.43;13.23;;;3.10;99.90;;;;;;4968209;28;20172;-76
2022/12/11 09:44:51;;;;;;;24.50;13.90;;;3.20;99.90;;;;;;4975469;28;20270;-76
2022/12/11 09:47:37;;;;;;;22.57;13.97;;;3.20;99.90;;;;;;4975080;28;20200;-76
2022/12/11 09:50:20;;;;;;;25.03;13.60;;;3.20;99.90;;;;;;4975805;28;20176;-77
2022/12/11 09:53:04;;;;;;;27.50;14.87;;;3.30;99.90;;;;;;4975017;28;20188;-76
2022/12/11 09:56:03;;;;;;;26.43;14.67;;;3.40;99.90;;;;;;4971974;28;20207;-75
2022/12/11 09:59:03;;;;;;;22.67;13.47;;;3.30;99.90;;;;;;4974170;28;20207;-74
2022/12/11 10:01:40;;;;;;;21.63;13.03;;;3.30;99.90;;;;;;4971369;28;20271;-75
2022/12/11 10:04:18;;;;;;;25.17;14.47;;;3.40;99.90;;;;;;4971495;28;20195;-73
2022/12/11 10:07:08;;;;;;;20.93;13.37;;;3.40;99.90;;;;;;4973086;28;20208;-75
2022/12/11 10:10:01;;;;;;;20.93;12.60;;;3.40;99.90;;;;;;4963072;28;20186;-75
2022/12/11 10:12:59;;;;;;;20.10;12.23;;;3.40;99.90;;;;;;4978342;28;20227;-74
2022/12/11 10:15:51;;;;;;;20.63;12.83;;;3.50;99.90;;;;;;4979127;28;20208;-76
2022/12/11 10:18:21;;;;;;;20.43;12.37;;;3.50;99.90;;;;;;4963004;28;20245;-76
2022/12/11 10:20:55;;;;;;;20.40;13.23;;;3.50;99.90;;;;;;4975634;28;20341;-74
2022/12/11 10:23:28;;;;;;;21.73;13.43;;;3.50;99.90;;;;;;4975031;28;20184;-74
2022/12/11 10:26:02;;;;;;;21.63;12.67;;;3.50;99.90;;;;;;4970685;28;20189;-76
2022/12/11 10:28:28;;;;;;;22.27;13.53;;;3.60;99.90;;;;;;4975811;28;20201;-73
2022/12/11 10:31:12;;;;;;;23.87;13.00;;;3.60;99.90;;;;;;4973502;28;20255;-75
2022/12/11 10:33:59;;;;;;;19.73;11.93;;;3.60;99.90;;;;;;4971888;28;20238;-74
2022/12/11 10:36:33;;;;;;;20.57;12.83;;;3.60;99.90;;;;;;4975886;28;20199;-74
2022/12/11 10:38:59;;;;;;;19.87;11.97;;;3.60;99.90;;;;;;4975613;28;20318;-75
2022/12/11 10:41:53;;;;;;;20.97;12.67;;;3.60;99.90;;;;;;4975322;28;20246;-75
2022/12/11 10:44:20;;;;;;;18.63;12.33;;;3.60;99.90;;;;;;4959008;28;20192;-75
2022/12/11 10:47:01;;;;;;;18.57;11.97;;;3.60;99.90;;;;;;4974747;28;20211;-75
2022/12/11 10:49:35;;;;;;;20.17;12.07;;;3.60;99.90;;;;;;4974076;28;20281;-76
2022/12/11 10:52:08;;;;;;;24.20;13.10;;;3.60;99.90;;;;;;4971809;28;20340;-75
2022/12/11 10:54:44;;;;;;;19.97;12.00;;;3.60;99.90;;;;;;4974318;28;20207;-76
2022/12/11 10:57:13;;;;;;;19.47;12.23;;;3.60;99.90;;;;;;4966884;28;20243;-78
2022/12/11 10:59:42;;;;;;;17.87;11.57;;;3.70;99.90;;;;;;4974676;28;20219;-75
2022/12/11 11:02:29;;;;;;;18.90;11.40;;;3.70;99.90;;;;;;4958567;28;20521;-76
2022/12/11 11:04:59;;;;;;;17.70;10.97;;;3.70;99.90;;;;;;4972932;28;20263;-75
2022/12/11 11:07:30;;;;;;;18.53;11.47;;;3.70;99.90;;;;;;4974525;28;20216;-74
2022/12/11 11:10:07;;;;;;;19.43;12.47;;;3.70;99.90;;;;;;4968182;28;20188;-75
2022/12/11 11:12:44;;;;;;;21.47;13.63;;;3.80;99.90;;;;;;4971571;28;20262;-75
2022/12/11 11:15:25;;;;;;;20.63;12.27;;;3.80;99.90;;;;;;4973929;28;20204;-74
2022/12/11 11:17:55;;;;;;;18.57;11.53;;;3.80;99.90;;;;;;4973693;28;20184;-75
2022/12/11 11:20:26;;;;;;;15.90;10.23;;;3.90;99.90;;;;;;4977404;28;20183;-75
2022/12/11 11:22:57;;;;;;;15.87;10.37;;;3.90;99.90;;;;;;4977113;28;20187;-77
2022/12/11 11:25:31;;;;;;;17.40;11.47;;;3.90;99.90;;;;;;4979647;28;20180;-75
2022/12/11 11:28:01;;;;;;;15.10;10.20;;;4.00;99.90;;;;;;4979758;28;20199;-75
2022/12/11 12:32:27;;;;;;;15.30;9.30;;;4.90;99.90;;;;;;6025969;23;21266;-74
2022/12/11 12:51:03;;;;;;;11.30;7.90;;;4.60;99.90;;;;;;5960088;23;20178;-75
2022/12/11 13:08:14;;;;;;;12.30;8.07;;;4.80;99.90;;;;;;4929668;29;20195;-73
2022/12/11 13:18:18;;;;;;;;;;;;;;;;;;;;;
2022/12/11 13:28:07;;;;;;;16.30;10.30;;;6.40;99.90;;;;;;4921193;29;20252;-75
2022/12/11 13:30:36;;;;;;;13.03;8.77;;;6.70;99.90;;;;;;4933076;28;20200;-75
2022/12/11 13:36:36;;;;;;;13.60;9.23;;;6.70;99.90;;;;;;5004052;28;20217;-75
2022/12/11 13:39:20;;;;;;;12.47;9.23;;;6.60;99.90;;;;;;5017089;28;20198;-75
2022/12/11 13:55:26;;;;;;;18.13;11.50;;;5.60;99.90;;;;;;5010357;28;20221;-75
2022/12/11 13:58:40;;;;;;;20.13;11.10;;;5.40;99.90;;;;;;5002786;28;20206;-76
2022/12/11 14:01:18;;;;;;;18.50;10.87;;;5.20;99.90;;;;;;4988655;28;20251;-76
2022/12/11 18:58:18;;;;;;;7.70;5.30;;;3.30;99.90;;;;;;4937413;28;20311;-77
2022/12/11 19:11:29;;;;;;;11.80;7.63;;;3.10;99.90;;;;;;4948305;28;20240;-76
2022/12/11 19:24:29;;;;;;;8.27;5.33;;;2.90;99.90;;;;;;4951289;28;20261;-76
2022/12/11 19:27:00;;;;;;;8.43;6.10;;;2.90;99.90;;;;;;4955879;28;20231;-78
2022/12/11 19:36:50;;;;;;;7.67;5.20;;;2.80;99.90;;;;;;4956906;28;20254;-78
2022/12/11 19:42:59;;;;;;;7.73;5.23;;;2.70;99.90;;;;;;4954435;28;20200;-77
2022/12/11 20:07:45;;;;;;;6.50;4.40;;;2.70;99.90;;;;;;4967154;28;20203;-76
2022/12/11 20:13:48;;;;;;;8.87;5.30;;;2.60;99.90;;;;;;4965958;28;20230;-78
2022/12/11 20:16:14;;;;;;;7.43;5.13;;;2.80;99.90;;;;;;4953166;29;20209;-77
2022/12/11 21:47:56;;;;;;;9.17;5.87;;;2.80;99.90;;;;;;5140594;23;20235;-74
2022/12/11 21:50:21;;;;;;;8.40;5.47;;;3.00;99.90;;;;;;4943707;28;20488;-76
2022/12/11 21:52:47;;;;;;;8.90;5.77;;;2.90;99.90;;;;;;4940121;28;20189;-76
2022/12/11 21:55:13;;;;;;;9.03;5.60;;;2.80;99.90;;;;;;4940900;29;20231;-75
2022/12/11 21:57:41;;;;;;;9.07;6.00;;;2.80;99.90;;;;;;4940693;29;20200;-77
2022/12/11 22:00:08;;;;;;;8.43;6.20;;;2.80;99.90;;;;;;4939836;28;20195;-75
2022/12/11 22:02:33;;;;;;;9.17;6.33;;;2.80;99.90;;;;;;4943308;28;20199;-77
2022/12/11 22:04:59;;;;;;;8.83;5.77;;;2.80;99.90;;;;;;4958796;28;20181;-76
2022/12/11 22:07:28;;;;;;;8.60;5.90;;;2.80;99.90;;;;;;4956183;28;20276;-77
2022/12/11 22:09:56;;;;;;;9.13;6.00;;;2.80;99.90;;;;;;4941204;28;20201;-75
2022/12/11 22:12:28;;;;;;;9.20;5.83;;;2.80;99.90;;;;;;4940768;28;20199;-77
2022/12/11 22:14:59;;;;;;;9.27;5.97;;;2.70;99.90;;;;;;4931150;29;20177;-76
2022/12/11 22:17:25;;;;;;;9.50;6.07;;;2.70;99.90;;;;;;4941719;28;20184;-76
2022/12/11 22:19:53;;;;;;;9.03;6.20;;;2.70;99.90;;;;;;4939573;29;20355;-76
2022/12/11 22:22:21;;;;;;;9.20;6.07;;;2.70;99.90;;;;;;4944879;28;20272;-76
2022/12/11 22:24:46;;;;;;;8.67;6.10;;;2.70;99.90;;;;;;4939661;28;20217;-78
2022/12/11 22:27:14;;;;;;;8.47;5.67;;;2.70;99.90;;;;;;4938449;29;20182;-78
2022/12/11 22:29:45;;;;;;;8.40;5.80;;;2.70;99.90;;;;;;4941565;28;20200;-78
2022/12/11 22:32:12;;;;;;;8.90;5.40;;;2.70;99.90;;;;;;4939915;29;20185;-78
2022/12/11 22:34:41;;;;;;;7.97;5.43;;;2.70;99.90;;;;;;4952665;28;20250;-78